Time,TemperatureF,DewpointF,PressureIn,WindDirection,WindDirectionDegrees,WindSpeedMPH,WindSpeedGustMPH,Humidity,HourlyPrecipIn,Conditions,Clouds,dailyrainin,SoftwareType,DateUTC
2013-07-09 00:31:00,74.0,61.0,-100.00,SSE,164,2.0,7.0,63,0.00,,,0.00,,2013-07-09 00:31:00,
2013-07-09 01:13:00,71.0,62.0,-100.00,SW,214,1.0,5.0,73,0.00,,,0.00,,2013-07-09 01:13:00,
2013-07-09 01:33:00,71.0,62.0,-100.00,SW,214,1.0,5.0,73,0.00,,,0.00,,2013-07-09 01:33:00,
2013-07-09 01:39:00,68.0,62.0,-100.00,SE,145,3.0,6.0,82,0.00,,,0.00,,2013-07-09 01:39:00,
2013-07-09 02:25:00,-999.0,-99.9,-100.00,SE,145,3.0,6.0,82,0.00,,,0.00,,2013-07-09 02:25:00,
2013-07-09 02:30:00,68.0,62.0,-100.00,SE,145,3.0,6.0,82,0.00,,,0.00,,2013-07-09 02:30:00,
2013-07-09 02:39:00,63.0,60.0,-100.00,SSE,167,2.0,5.0,91,0.00,,,0.00,,2013-07-09 02:39:00,
2013-07-09 03:14:00,63.0,60.0,-100.00,SSE,167,2.0,5.0,91,0.00,,,0.00,,2013-07-09 03:14:00,
2013-07-09 03:23:00,63.0,60.0,-100.00,SSE,167,2.0,5.0,91,0.00,,,0.00,,2013-07-09 03:23:00,
2013-07-09 03:32:00,63.0,60.0,-100.00,SSE,167,2.0,5.0,91,0.00,,,0.00,,2013-07-09 03:32:00,
2013-07-09 04:02:00,59.0,58.0,-100.00,SE,133,0.0,5.0,97,0.00,,,-99.99,,2013-07-09 04:02:00,
2013-07-09 04:11:00,59.0,58.0,-100.00,SE,133,0.0,5.0,97,0.00,,,-99.99,,2013-07-09 04:11:00,
2013-07-09 04:22:00,59.0,58.0,-100.00,SE,133,0.0,5.0,97,0.00,,,-99.99,,2013-07-09 04:22:00,
2013-07-09 04:34:00,59.0,58.0,-100.00,SE,133,0.0,5.0,97,0.00,,,-99.99,,2013-07-09 04:34:00,
2013-07-09 05:02:00,57.0,57.0,-100.00,South,169,1.0,4.0,99,0.00,,,0.00,,2013-07-09 05:02:00,
2013-07-09 05:11:00,57.0,57.0,-100.00,South,169,1.0,4.0,99,0.00,,,0.00,,2013-07-09 05:11:00,
2013-07-09 05:22:00,57.0,57.0,-100.00,South,169,1.0,4.0,99,0.00,,,0.00,,2013-07-09 05:22:00,
2013-07-09 05:33:00,57.0,57.0,-100.00,South,169,1.0,4.0,99,0.00,,,0.00,,2013-07-09 05:33:00,
2013-07-09 06:01:00,55.0,55.0,-100.00,NE,37,0.0,2.0,99,0.00,,,-99.99,,2013-07-09 06:01:00,
2013-07-09 06:11:00,55.0,55.0,-100.00,NE,37,0.0,2.0,99,0.00,,,-99.99,,2013-07-09 06:11:00,
2013-07-09 06:22:00,55.0,55.0,-100.00,NE,37,0.0,2.0,99,0.00,,,-99.99,,2013-07-09 06:22:00,
2013-07-09 06:33:00,55.0,55.0,-100.00,NE,37,0.0,2.0,99,0.00,,,-99.99,,2013-07-09 06:33:00,
2013-07-09 07:02:00,54.0,54.0,-100.00,SSE,153,0.0,0.0,99,0.00,,,0.00,,2013-07-09 07:02:00,
2013-07-09 07:12:00,54.0,54.0,-100.00,SSE,153,0.0,0.0,99,0.00,,,0.00,,2013-07-09 07:12:00,
2013-07-09 07:22:00,54.0,54.0,-100.00,SSE,153,0.0,0.0,99,0.00,,,0.00,,2013-07-09 07:22:00,
2013-07-09 07:34:00,54.0,54.0,-100.00,SSE,153,0.0,0.0,99,0.00,,,0.00,,2013-07-09 07:34:00,
2013-07-09 08:01:00,53.0,53.0,-100.00,NNE,16,0.0,0.0,99,0.00,,,0.00,,2013-07-09 08:01:00,
2013-07-09 08:11:00,53.0,53.0,-100.00,NNE,16,0.0,0.0,99,0.00,,,0.00,,2013-07-09 08:11:00,
2013-07-09 08:22:00,53.0,53.0,-100.00,NNE,16,0.0,0.0,99,0.00,,,0.00,,2013-07-09 08:22:00,
2013-07-09 08:33:00,53.0,53.0,-100.00,NNE,16,0.0,0.0,99,0.00,,,0.00,,2013-07-09 08:33:00,
2013-07-09 09:02:00,54.0,54.0,-100.00,SSE,165,0.0,0.0,99,0.00,,,0.00,,2013-07-09 09:02:00,
2013-07-09 09:12:00,54.0,54.0,-100.00,SSE,165,0.0,0.0,99,0.00,,,0.00,,2013-07-09 09:12:00,
2013-07-09 09:22:00,54.0,54.0,-100.00,SSE,165,0.0,0.0,99,0.00,,,0.00,,2013-07-09 09:22:00,
2013-07-09 09:34:00,54.0,54.0,-100.00,SSE,165,0.0,0.0,99,0.00,,,0.00,,2013-07-09 09:34:00,
2013-07-09 10:01:00,53.0,53.0,-100.00,NNW,343,0.0,0.0,100,0.00,,,0.00,,2013-07-09 10:01:00,
2013-07-09 10:11:00,53.0,53.0,-100.00,NNW,343,0.0,0.0,100,0.00,,,0.00,,2013-07-09 10:11:00,
2013-07-09 10:22:00,53.0,53.0,-100.00,NNW,343,0.0,0.0,100,0.00,,,0.00,,2013-07-09 10:22:00,
2013-07-09 10:33:00,53.0,53.0,-100.00,NNW,343,0.0,0.0,100,0.00,,,0.00,,2013-07-09 10:33:00,
2013-07-09 11:01:00,55.0,55.0,-100.00,NW,307,0.0,4.0,100,0.00,,,0.00,,2013-07-09 11:01:00,
2013-07-09 11:11:00,55.0,55.0,-100.00,NW,307,0.0,4.0,100,0.00,,,0.00,,2013-07-09 11:11:00,
2013-07-09 11:22:00,55.0,55.0,-100.00,NW,307,0.0,4.0,100,0.00,,,0.00,,2013-07-09 11:22:00,
2013-07-09 11:34:00,55.0,55.0,-100.00,NW,307,0.0,4.0,100,0.00,,,0.00,,2013-07-09 11:34:00,
2013-07-09 12:02:00,58.0,58.0,-100.00,East,85,3.0,5.0,100,0.00,,,0.00,,2013-07-09 12:02:00,
2013-07-09 12:11:00,58.0,58.0,-100.00,East,85,3.0,5.0,100,0.00,,,0.00,,2013-07-09 12:11:00,
2013-07-09 12:22:00,58.0,58.0,-100.00,East,85,3.0,5.0,100,0.00,,,0.00,,2013-07-09 12:22:00,
2013-07-09 12:33:00,58.0,58.0,-100.00,East,85,3.0,5.0,100,0.00,,,0.00,,2013-07-09 12:33:00,
2013-07-09 13:01:00,62.0,62.0,-100.00,East,83,1.0,3.0,99,0.00,,,0.00,,2013-07-09 13:01:00,
2013-07-09 13:11:00,62.0,62.0,-100.00,East,83,1.0,3.0,99,0.00,,,0.00,,2013-07-09 13:11:00,
2013-07-09 13:22:00,62.0,62.0,-100.00,East,83,1.0,3.0,99,0.00,,,0.00,,2013-07-09 13:22:00,
2013-07-09 13:33:00,62.0,62.0,-100.00,East,83,1.0,3.0,99,0.00,,,0.00,,2013-07-09 13:33:00,
2013-07-09 14:11:00,66.0,66.0,-100.00,SSE,160,4.0,7.0,99,0.00,,,0.00,,2013-07-09 14:11:00,
2013-07-09 14:22:00,66.0,66.0,-100.00,SSE,160,4.0,7.0,99,0.00,,,0.00,,2013-07-09 14:22:00,
2013-07-09 14:34:00,66.0,66.0,-100.00,SSE,160,4.0,7.0,99,0.00,,,0.00,,2013-07-09 14:34:00,
2013-07-09 17:02:00,67.0,65.0,-100.00,SSE,167,3.0,10.0,93,0.01,,,0.01,,2013-07-09 17:02:00,
2013-07-09 17:11:00,67.0,65.0,-100.00,SSE,167,3.0,10.0,93,0.01,,,0.01,,2013-07-09 17:11:00,
2013-07-09 17:22:00,67.0,65.0,-100.00,SSE,167,3.0,10.0,93,0.01,,,0.01,,2013-07-09 17:22:00,
2013-07-09 17:35:00,67.0,65.0,-100.00,SSE,167,3.0,10.0,93,0.01,,,0.01,,2013-07-09 17:35:00,
2013-07-09 18:02:00,67.0,66.0,-100.00,SSE,164,3.0,5.0,96,0.02,,,0.03,,2013-07-09 18:02:00,
2013-07-09 18:11:00,67.0,66.0,-100.00,SSE,164,3.0,5.0,96,0.02,,,0.03,,2013-07-09 18:11:00,
2013-07-09 18:22:00,67.0,66.0,-100.00,SSE,164,3.0,5.0,96,0.02,,,0.03,,2013-07-09 18:22:00,
2013-07-09 18:32:00,67.0,66.0,-100.00,SSE,164,3.0,5.0,96,0.02,,,0.03,,2013-07-09 18:32:00,
2013-07-09 23:11:00,74.0,66.0,-100.00,NW,311,2.0,5.0,76,-99.99,,,0.06,,2013-07-09 23:11:00,
2013-07-09 23:22:00,74.0,66.0,-100.00,NW,311,2.0,5.0,76,-99.99,,,0.06,,2013-07-09 23:22:00,
2013-07-09 23:33:00,74.0,66.0,-100.00,NW,311,2.0,5.0,76,-99.99,,,0.06,,2013-07-09 23:33:00,